createdAt,value
2018-07-16T06:22:55.093Z,44.50
2018-07-16T06:23:58.120Z,45.20
2018-07-16T06:25:01.090Z,45.10
2018-07-16T06:26:04.090Z,45.10
2018-07-16T06:27:07.130Z,45.00
2018-07-16T06:28:10.132Z,44.90
2018-07-16T06:29:13.132Z,44.80
2018-07-16T06:30:16.114Z,44.70
2018-07-16T06:31:19.252Z,44.50
2018-07-16T06:32:22.527Z,44.50
2018-07-16T06:33:25.451Z,44.30
2018-07-16T06:34:28.480Z,44.20
2018-07-16T06:35:31.485Z,44.10
2018-07-16T06:36:34.501Z,43.90
2018-07-16T06:37:37.505Z,43.90
2018-07-16T06:38:40.518Z,43.80
2018-07-16T06:39:43.543Z,43.80
2018-07-16T06:41:49.398Z,43.80
2018-07-16T06:42:52.834Z,43.70
2018-07-16T06:43:55.813Z,43.50
2018-07-16T06:44:58.813Z,43.30
2018-07-16T06:46:02.808Z,43.10
2018-07-16T06:47:06.006Z,43.00
2018-07-16T06:48:09.027Z,43.00
2018-07-16T06:49:12.026Z,42.90
2018-07-16T06:50:15.642Z,42.90
2018-07-16T06:51:18.699Z,42.80
2018-07-16T06:53:24.557Z,42.80
2018-07-16T06:55:30.988Z,42.80
2018-07-16T06:56:34.041Z,42.80
2018-07-16T06:57:37.281Z,42.70
2018-07-16T06:59:43.245Z,42.80
2018-07-16T07:00:46.280Z,42.50
2018-07-16T07:01:49.280Z,42.60
2018-07-16T07:02:52.294Z,42.50
2018-07-16T07:03:55.299Z,42.40
2018-07-16T07:04:58.409Z,42.30
2018-07-16T07:06:01.405Z,42.30
2018-07-16T07:07:04.393Z,42.30
2018-07-16T07:08:07.469Z,42.20
2018-07-16T07:09:10.493Z,42.20
2018-07-16T07:10:13.490Z,42.20
2018-07-16T07:11:16.480Z,42.20
2018-07-16T07:12:19.501Z,42.30
2018-07-16T07:13:22.502Z,42.10
2018-07-16T07:14:25.506Z,42.20
2018-07-16T07:15:28.529Z,42.10
2018-07-16T07:16:31.570Z,42.10
2018-07-16T07:17:34.636Z,42.10
2018-07-16T07:19:40.461Z,42.00
2018-07-16T07:20:43.469Z,42.00
2018-07-16T07:21:46.457Z,42.00
2018-07-16T07:23:52.297Z,42.00
2018-07-16T07:24:55.568Z,42.00
2018-07-16T07:25:58.553Z,42.00
2018-07-16T07:27:01.553Z,42.00
2018-07-16T07:28:05.005Z,41.90
2018-07-16T07:29:07.992Z,41.90
2018-07-16T07:30:11.022Z,42.00
2018-07-16T07:31:14.033Z,42.00
2018-07-16T07:32:17.041Z,42.10
2018-07-16T07:34:22.885Z,41.90
2018-07-16T07:35:26.017Z,41.90
2018-07-16T07:36:28.966Z,41.90
2018-07-16T07:37:31.973Z,42.00
2018-07-16T07:38:34.997Z,42.00
2018-07-16T07:39:37.980Z,41.70
2018-07-16T07:41:43.810Z,42.10
2018-07-16T07:42:47.084Z,42.00
2018-07-16T07:43:50.091Z,42.00
2018-07-16T07:45:55.904Z,42.00
2018-07-16T07:46:58.888Z,42.00
2018-07-16T07:48:01.923Z,42.00
2018-07-16T07:49:05.227Z,41.90
2018-07-16T07:50:08.229Z,41.50
2018-07-16T07:51:11.205Z,41.90
2018-07-16T07:52:14.205Z,41.90
2018-07-16T07:53:17.242Z,41.90
2018-07-16T07:54:20.465Z,41.90
2018-07-16T07:55:23.720Z,41.40
2018-07-16T07:56:26.316Z,41.80
2018-07-16T07:57:29.293Z,42.40
2018-07-16T07:59:35.153Z,41.70
2018-07-16T08:00:38.160Z,41.60
2018-07-16T08:01:41.181Z,41.50
2018-07-16T08:02:44.161Z,41.40
2018-07-16T08:03:47.184Z,41.40
2018-07-16T08:04:50.273Z,41.20
2018-07-16T08:05:58.729Z,41.10
2018-07-16T08:07:07.108Z,41.00
2018-07-16T08:08:10.132Z,41.00
2018-07-16T08:09:13.137Z,40.90
2018-07-16T08:10:16.145Z,40.90
2018-07-16T08:11:19.147Z,41.50
2018-07-16T08:12:22.177Z,40.90
2018-07-16T08:13:25.269Z,40.90
2018-07-16T08:14:28.279Z,41.00
2018-07-16T08:15:31.281Z,41.30
2018-07-16T08:16:34.321Z,41.30
2018-07-16T08:17:37.374Z,41.40
2018-07-16T08:18:40.397Z,41.30
2018-07-16T08:19:43.424Z,41.50
2018-07-16T08:20:46.441Z,41.60
2018-07-16T08:23:55.364Z,42.00
2018-07-16T08:24:58.366Z,42.00
2018-07-16T08:27:06.053Z,42.00
2018-07-16T08:28:09.090Z,42.20
2018-07-16T08:29:12.389Z,42.50
2018-07-16T08:30:15.428Z,42.50
2018-07-16T08:31:18.890Z,42.50
2018-07-16T08:32:21.888Z,42.50
2018-07-16T08:33:25.110Z,42.60
2018-07-16T08:34:28.143Z,42.60
2018-07-16T08:35:31.173Z,42.70
2018-07-16T08:36:34.633Z,42.70
2018-07-16T08:37:37.681Z,42.90
2018-07-16T08:38:40.793Z,42.80
2018-07-16T08:39:43.858Z,42.80
2018-07-16T08:40:46.914Z,42.50
2018-07-16T08:41:49.948Z,42.40
2018-07-16T08:42:53.574Z,42.20
2018-07-16T08:44:59.960Z,41.90
2018-07-16T08:46:03.008Z,42.20
2018-07-16T08:47:06.005Z,42.20
2018-07-16T08:48:09.013Z,42.40
2018-07-16T08:49:12.241Z,42.50
2018-07-16T08:51:18.030Z,42.70
2018-07-16T08:52:21.029Z,42.70
2018-07-16T08:53:24.108Z,42.60
2018-07-16T08:54:27.130Z,42.50
2018-07-16T08:55:30.145Z,42.40
2018-07-16T08:56:33.186Z,42.40
2018-07-16T08:57:36.164Z,42.30
2018-07-16T08:58:39.150Z,42.20
2018-07-16T08:59:42.152Z,42.20
2018-07-16T09:00:45.161Z,41.90
2018-07-16T09:01:48.165Z,41.60
2018-07-16T09:02:51.178Z,41.30
2018-07-16T09:03:54.208Z,41.00
2018-07-16T09:04:57.254Z,40.80
2018-07-16T09:06:03.139Z,40.60
2018-07-16T09:07:06.439Z,40.60
2018-07-16T09:08:09.360Z,40.70
2018-07-16T09:09:12.381Z,40.60
2018-07-16T09:10:15.356Z,40.80
2018-07-16T09:11:18.425Z,40.90
2018-07-16T09:12:21.367Z,41.00
2018-07-16T09:13:24.419Z,40.90
2018-07-16T09:14:27.337Z,42.10
2018-07-16T09:15:30.317Z,40.60
2018-07-16T09:16:33.310Z,40.70
2018-07-16T09:17:36.304Z,40.80
2018-07-16T09:18:39.341Z,40.80
2018-07-16T09:19:42.337Z,40.80
2018-07-16T09:20:45.325Z,40.70
2018-07-16T09:21:48.317Z,40.60
2018-07-16T09:22:51.318Z,40.30
2018-07-16T09:23:54.350Z,40.10
2018-07-16T09:24:57.329Z,40.10
2018-07-16T09:26:00.304Z,40.20
2018-07-16T09:27:03.289Z,40.20
2018-07-16T09:28:06.337Z,40.20
2018-07-16T09:29:09.328Z,40.20
2018-07-16T09:30:12.292Z,40.40
2018-07-16T09:31:15.277Z,40.30
2018-07-16T09:32:18.265Z,40.20
2018-07-16T09:33:21.262Z,40.10
2018-07-16T09:34:24.276Z,40.20
2018-07-16T09:35:27.310Z,40.20
2018-07-16T09:36:30.346Z,40.00
2018-07-16T09:37:33.332Z,40.00
2018-07-16T09:38:36.341Z,40.10
2018-07-16T09:39:39.374Z,39.90
2018-07-16T09:40:42.405Z,39.90
2018-07-16T09:41:46.431Z,38.90
2018-07-16T09:42:49.418Z,40.00
2018-07-16T09:43:52.400Z,40.00
2018-07-16T09:44:55.455Z,39.80
2018-07-16T09:45:58.490Z,39.80
2018-07-16T09:47:01.738Z,39.90
2018-07-16T09:48:04.793Z,39.90
2018-07-16T09:49:07.961Z,39.90
2018-07-16T09:50:10.969Z,39.70
2018-07-16T09:51:13.984Z,39.70
2018-07-16T09:52:16.946Z,39.70
2018-07-16T09:53:19.932Z,39.70
2018-07-16T09:54:22.947Z,39.70
2018-07-16T09:55:26.027Z,40.20
2018-07-16T09:56:29.022Z,39.50
2018-07-16T09:57:32.037Z,40.20
2018-07-16T09:59:37.841Z,38.90
2018-07-16T10:00:46.226Z,39.40
2018-07-16T10:01:54.576Z,39.30
2018-07-16T10:02:57.621Z,39.60
2018-07-16T10:04:00.614Z,39.50
2018-07-16T10:05:03.668Z,40.50
2018-07-16T10:06:06.649Z,39.50
2018-07-16T10:07:09.656Z,39.40
2018-07-16T10:08:12.636Z,39.40
2018-07-16T10:09:15.641Z,39.40
2018-07-16T10:10:18.747Z,39.20
2018-07-16T10:11:21.762Z,39.20
2018-07-16T10:12:24.749Z,39.10
2018-07-16T10:13:27.777Z,38.90
2018-07-16T10:14:30.760Z,38.80
2018-07-16T10:15:33.752Z,38.80
2018-07-16T10:16:36.754Z,38.80
2018-07-16T10:17:39.725Z,38.70
2018-07-16T10:18:42.753Z,38.70
2018-07-16T10:19:45.752Z,38.70
2018-07-16T10:20:48.733Z,38.80
2018-07-16T10:21:51.762Z,38.80
2018-07-16T10:22:54.754Z,38.90
2018-07-16T10:23:57.752Z,39.00
2018-07-16T10:25:00.786Z,39.10
2018-07-16T10:26:03.784Z,39.10
2018-07-16T10:27:06.778Z,39.10
2018-07-16T10:28:09.778Z,39.20
2018-07-16T10:29:12.785Z,39.80
2018-07-16T10:30:15.844Z,39.20
2018-07-16T10:31:18.974Z,39.20
2018-07-16T10:32:22.062Z,39.20
2018-07-16T10:33:25.116Z,39.00
2018-07-16T10:34:28.161Z,39.10
2018-07-16T10:35:31.146Z,39.00
2018-07-16T10:36:34.137Z,39.00
2018-07-16T10:37:37.113Z,39.00
2018-07-16T10:38:40.117Z,39.00
2018-07-16T10:39:43.121Z,38.90
2018-07-16T10:40:46.137Z,38.90
2018-07-16T10:41:49.121Z,38.90
2018-07-16T10:42:52.229Z,38.80
2018-07-16T10:43:55.268Z,38.60
2018-07-16T10:44:58.249Z,38.50
2018-07-16T10:46:01.251Z,38.70
2018-07-16T10:47:04.254Z,38.60
2018-07-16T10:48:07.301Z,38.90
2018-07-16T10:50:13.105Z,38.30
2018-07-16T10:51:16.117Z,38.90
2018-07-16T10:52:19.131Z,39.40
2018-07-16T10:53:22.152Z,38.50
2018-07-16T10:54:25.199Z,38.30
2018-07-16T10:55:28.149Z,38.60
2018-07-16T10:56:31.129Z,38.60
2018-07-16T10:57:34.117Z,38.60
2018-07-16T10:58:37.163Z,38.70
2018-07-16T10:59:40.180Z,38.40
2018-07-16T11:00:43.157Z,38.60
2018-07-16T11:01:46.172Z,38.60
2018-07-16T11:02:49.203Z,38.50
2018-07-16T11:03:52.199Z,38.50
2018-07-16T11:04:55.177Z,38.40
2018-07-16T11:06:02.448Z,38.40
2018-07-16T11:07:05.435Z,38.40
2018-07-16T11:08:08.424Z,38.40
2018-07-16T11:09:11.409Z,38.40
2018-07-16T11:10:14.386Z,38.30
2018-07-16T11:11:17.364Z,38.20
2018-07-16T11:12:20.357Z,38.20
2018-07-16T11:13:23.455Z,37.90
2018-07-16T11:14:26.489Z,37.70
2018-07-16T11:15:29.530Z,37.90
2018-07-16T11:16:32.513Z,37.80
2018-07-16T11:17:35.489Z,37.80
2018-07-16T11:18:38.481Z,37.80
2018-07-16T11:19:41.560Z,37.80
2018-07-16T11:20:44.627Z,37.80
2018-07-16T11:21:47.589Z,37.60
2018-07-16T11:22:50.592Z,37.60
2018-07-16T11:23:53.604Z,37.60
2018-07-16T11:24:56.584Z,37.60
2018-07-16T11:25:59.584Z,39.30
2018-07-16T11:27:02.595Z,37.60
2018-07-16T11:28:05.593Z,37.70
2018-07-16T11:29:08.569Z,37.60
2018-07-16T11:30:11.590Z,37.60
2018-07-16T11:31:14.581Z,37.50
2018-07-16T11:32:17.578Z,37.70
2018-07-16T11:33:20.658Z,37.60
2018-07-16T11:34:23.639Z,37.60
2018-07-16T11:35:26.682Z,37.50
2018-07-16T11:36:29.645Z,37.40
2018-07-16T11:37:32.642Z,37.50
2018-07-16T11:38:35.670Z,37.50
2018-07-16T11:39:38.661Z,37.60
2018-07-16T11:40:41.649Z,37.60
2018-07-16T11:42:38.285Z,37.30
2018-07-16T11:43:41.297Z,38.00
2018-07-16T11:47:51.749Z,37.60
2018-07-16T11:52:03.245Z,37.50
2018-07-16T11:54:09.065Z,37.40
2018-07-16T11:56:14.881Z,37.30
2018-07-16T11:57:17.865Z,37.30
2018-07-16T11:58:20.849Z,37.20
2018-07-16T11:59:23.946Z,37.30
2018-07-16T12:00:26.817Z,37.80
2018-07-16T12:01:29.793Z,37.20
2018-07-16T12:02:32.780Z,37.10
2018-07-16T12:03:35.818Z,37.10
2018-07-16T12:04:38.778Z,37.10
2018-07-16T12:05:41.785Z,37.10
2018-07-16T12:06:44.768Z,37.10
2018-07-16T12:08:50.889Z,37.10
2018-07-16T12:09:53.940Z,37.10
2018-07-16T12:10:56.923Z,37.10
2018-07-16T12:11:59.927Z,37.70
2018-07-16T12:13:02.930Z,37.10
2018-07-16T12:14:05.915Z,37.70
2018-07-16T12:20:23.041Z,36.80
2018-07-16T12:22:28.838Z,36.70
2018-07-16T12:35:02.809Z,36.90
2018-07-16T12:38:11.594Z,36.90
2018-07-16T12:42:23.029Z,36.90
2018-07-16T12:45:31.675Z,36.70
2018-07-16T12:51:48.797Z,36.70
2018-07-16T12:52:52.001Z,36.70
2018-07-16T13:04:23.257Z,36.00
2018-07-16T13:07:31.893Z,36.00
2018-07-16T13:09:37.766Z,36.00
2018-07-16T13:10:40.998Z,36.00
2018-07-16T13:13:49.805Z,36.00
2018-07-16T13:16:58.516Z,36.00
2018-07-16T13:19:04.348Z,36.00
2018-07-16T13:20:07.359Z,36.00
2018-07-16T13:24:18.938Z,36.10
2018-07-16T14:57:44.497Z,36.50
2018-07-16T14:58:48.129Z,37.20
2018-07-16T14:59:51.108Z,37.30
2018-07-16T15:00:54.094Z,37.30
2018-07-16T15:01:57.065Z,37.40
2018-07-16T15:03:00.055Z,37.50
2018-07-16T15:04:04.089Z,37.60
2018-07-16T15:05:07.105Z,37.60
2018-07-16T15:06:10.103Z,37.90
2018-07-16T15:07:13.085Z,37.80
2018-07-16T15:08:16.072Z,37.90
2018-07-16T15:09:19.072Z,38.00
2018-07-16T15:10:22.054Z,38.00
2018-07-16T15:11:25.041Z,38.20
2018-07-16T15:12:28.024Z,38.30
2018-07-16T15:13:31.005Z,38.60
2018-07-16T15:14:33.997Z,38.90
2018-07-16T15:15:36.980Z,38.90
2018-07-16T15:16:40.014Z,39.10
2018-07-16T15:17:42.997Z,39.30
2018-07-16T15:18:46.044Z,39.40
2018-07-16T15:19:49.298Z,39.20
2018-07-16T15:20:52.628Z,39.00
2018-07-16T15:21:55.304Z,38.70
2018-07-16T15:22:58.298Z,38.70
2018-07-16T15:24:01.309Z,38.40
2018-07-16T15:25:04.313Z,37.50
2018-07-16T15:26:07.302Z,38.10
2018-07-16T15:27:10.313Z,38.00
2018-07-16T15:28:13.339Z,37.80
2018-07-16T15:29:16.460Z,37.70
2018-07-16T15:30:19.488Z,37.50
2018-07-16T15:32:14.632Z,36.80
2018-07-16T15:33:17.680Z,37.20
2018-07-16T15:34:20.680Z,37.00
2018-07-16T15:35:23.689Z,36.90
2018-07-16T15:36:26.733Z,36.70
2018-07-16T15:37:29.714Z,36.40
2018-07-16T15:38:32.706Z,36.10
2018-07-16T15:39:35.679Z,35.80
2018-07-16T15:40:38.673Z,35.60
2018-07-16T15:41:41.649Z,35.50
2018-07-16T15:42:44.622Z,35.20
2018-07-16T15:43:47.595Z,35.20
2018-07-16T15:44:50.765Z,35.00
2018-07-16T15:45:53.754Z,34.90
2018-07-16T15:46:56.870Z,34.80
2018-07-16T15:47:59.874Z,34.70
2018-07-16T15:49:02.861Z,34.50
2018-07-16T15:50:05.917Z,34.30
2018-07-16T15:51:08.909Z,34.30
2018-07-16T15:52:11.905Z,34.20
2018-07-16T15:53:14.890Z,34.10
2018-07-16T15:54:17.916Z,34.00
2018-07-16T15:55:20.897Z,33.90
2018-07-16T15:56:24.781Z,33.90
2018-07-16T15:57:28.310Z,33.90
2018-07-16T15:58:31.764Z,33.90
2018-07-16T15:59:34.778Z,33.90
2018-07-16T16:00:37.784Z,33.90
2018-07-16T16:01:40.837Z,35.50
2018-07-16T16:02:43.878Z,33.80
2018-07-16T16:03:46.814Z,33.90
2018-07-16T16:04:49.775Z,33.70
2018-07-16T16:05:52.809Z,33.70
2018-07-16T16:06:57.052Z,33.70
2018-07-16T16:08:00.050Z,33.80
2018-07-16T16:09:03.972Z,33.80
2018-07-16T16:10:06.962Z,33.60
2018-07-16T16:11:10.041Z,33.70
2018-07-16T16:12:13.099Z,33.70
2018-07-16T16:13:41.831Z,33.40
2018-07-16T16:14:44.821Z,34.20
2018-07-16T16:15:47.905Z,34.10
2018-07-16T16:16:50.890Z,34.00
